sensor_id;sensor_type;location;lat;lon;timestamp;temperature;humidity
38936;DHT22;66589;47.458;9.644;2023-05-15T03:18:09;12.30;99.90
38936;DHT22;66589;47.458;9.644;2023-05-15T03:20:36;12.40;99.90
38936;DHT22;66589;47.458;9.644;2023-05-15T03:23:01;12.40;99.90
38936;DHT22;66589;47.458;9.644;2023-05-15T03:25:27;12.40;99.80
38936;DHT22;66589;47.458;9.644;2023-05-15T03:27:53;12.30;99.90
38936;DHT22;66589;47.458;9.644;2023-05-15T03:30:18;12.30;99.90
38936;DHT22;66589;47.458;9.644;2023-05-15T03:32:44;12.30;99.90
38936;DHT22;66589;47.458;9.644;2023-05-15T03:35:10;12.20;99.90
38936;DHT22;66589;47.458;9.644;2023-05-15T03:37:35;12.10;99.90
38936;DHT22;66589;47.458;9.644;2023-05-15T03:40:01;12.10;99.90
38936;DHT22;66589;47.458;9.644;2023-05-15T03:42:27;12.20;99.90
38936;DHT22;66589;47.458;9.644;2023-05-15T03:44:53;12.10;99.90
38936;DHT22;66589;47.458;9.644;2023-05-15T03:47:20;12.10;99.90
38936;DHT22;66589;47.458;9.644;2023-05-15T03:49:46;12.10;99.90
38936;DHT22;66589;47.458;9.644;2023-05-15T03:52:12;12.10;99.90
38936;DHT22;66589;47.458;9.644;2023-05-15T03:54:38;12.20;99.90
38936;DHT22;66589;47.458;9.644;2023-05-15T03:57:04;12.20;99.90
38936;DHT22;66589;47.458;9.644;2023-05-15T03:59:30;12.20;99.90
38936;DHT22;66589;47.458;9.644;2023-05-15T04:01:56;12.20;99.90
38936;DHT22;66589;47.458;9.644;2023-05-15T04:04:21;12.20;99.90
38936;DHT22;66589;47.458;9.644;2023-05-15T04:06:47;12.20;99.90
38936;DHT22;66589;47.458;9.644;2023-05-15T04:09:13;12.30;99.90
38936;DHT22;66589;47.458;9.644;2023-05-15T04:11:38;12.20;99.90
38936;DHT22;66589;47.458;9.644;2023-05-15T04:14:04;12.20;99.90
38936;DHT22;66589;47.458;9.644;2023-05-15T04:16:29;12.20;99.90
38936;DHT22;66589;47.458;9.644;2023-05-15T04:18:55;12.20;99.90
38936;DHT22;66589;47.458;9.644;2023-05-15T04:21:21;12.20;99.90
38936;DHT22;66589;47.458;9.644;2023-05-15T04:23:47;12.20;99.90
38936;DHT22;66589;47.458;9.644;2023-05-15T04:26:12;12.30;99.90
38936;DHT22;66589;47.458;9.644;2023-05-15T04:28:38;12.30;99.90
38936;DHT22;66589;47.458;9.644;2023-05-15T04:31:03;12.40;99.90
38936;DHT22;66589;47.458;9.644;2023-05-15T04:33:29;12.50;99.90
38936;DHT22;66589;47.458;9.644;2023-05-15T04:35:55;12.50;99.80
38936;DHT22;66589;47.458;9.644;2023-05-15T04:38:20;12.50;99.60
38936;DHT22;66589;47.458;9.644;2023-05-15T04:40:46;12.60;99.40
38936;DHT22;66589;47.458;9.644;2023-05-15T04:43:12;12.60;98.30
38936;DHT22;66589;47.458;9.644;2023-05-15T04:45:37;12.60;98.50
38936;DHT22;66589;47.458;9.644;2023-05-15T04:48:03;12.70;97.60
38936;DHT22;66589;47.458;9.644;2023-05-15T04:50:29;12.70;97.00
38936;DHT22;66589;47.458;9.644;2023-05-15T04:52:55;12.80;96.80
38936;DHT22;66589;47.458;9.644;2023-05-15T04:55:20;12.80;97.40
38936;DHT22;66589;47.458;9.644;2023-05-15T04:57:46;12.80;96.60
38936;DHT22;66589;47.458;9.644;2023-05-15T05:00:13;12.80;96.80
38936;DHT22;66589;47.458;9.644;2023-05-15T05:02:39;12.90;97.10
38936;DHT22;66589;47.458;9.644;2023-05-15T05:05:06;12.90;96.70
38936;DHT22;66589;47.458;9.644;2023-05-15T05:07:32;12.90;97.20
38936;DHT22;66589;47.458;9.644;2023-05-15T05:09:58;12.90;97.00
38936;DHT22;66589;47.458;9.644;2023-05-15T05:12:24;13.00;97.00
38936;DHT22;66589;47.458;9.644;2023-05-15T05:14:50;13.10;97.00
38936;DHT22;66589;47.458;9.644;2023-05-15T05:17:15;13.20;96.50
38936;DHT22;66589;47.458;9.644;2023-05-15T05:19:41;13.30;96.50
38936;DHT22;66589;47.458;9.644;2023-05-15T05:22:07;13.50;96.00
38936;DHT22;66589;47.458;9.644;2023-05-15T05:24:33;13.60;95.60
38936;DHT22;66589;47.458;9.644;2023-05-15T05:27:03;13.70;95.50
38936;DHT22;66589;47.458;9.644;2023-05-15T05:29:29;13.80;95.20
38936;DHT22;66589;47.458;9.644;2023-05-15T05:31:55;13.90;95.30
38936;DHT22;66589;47.458;9.644;2023-05-15T05:34:21;13.90;95.30
38936;DHT22;66589;47.458;9.644;2023-05-15T05:36:47;14.00;94.90
38936;DHT22;66589;47.458;9.644;2023-05-15T05:39:13;14.10;93.40
38936;DHT22;66589;47.458;9.644;2023-05-15T05:41:41;14.10;93.20
38936;DHT22;66589;47.458;9.644;2023-05-15T05:44:06;14.10;92.40
38936;DHT22;66589;47.458;9.644;2023-05-15T05:46:32;14.00;92.70
38936;DHT22;66589;47.458;9.644;2023-05-15T05:48:58;14.00;92.60
38936;DHT22;66589;47.458;9.644;2023-05-15T05:51:23;14.00;92.00
38936;DHT22;66589;47.458;9.644;2023-05-15T05:53:49;14.10;92.10
38936;DHT22;66589;47.458;9.644;2023-05-15T05:56:15;14.00;91.90
38936;DHT22;66589;47.458;9.644;2023-05-15T05:58:40;14.10;91.90
38936;DHT22;66589;47.458;9.644;2023-05-15T06:01:06;14.10;91.70
38936;DHT22;66589;47.458;9.644;2023-05-15T06:03:33;14.20;93.20
38936;DHT22;66589;47.458;9.644;2023-05-15T06:05:59;14.30;92.30
38936;DHT22;66589;47.458;9.644;2023-05-15T06:08:25;14.40;92.30
38936;DHT22;66589;47.458;9.644;2023-05-15T06:10:51;14.40;92.30
38936;DHT22;66589;47.458;9.644;2023-05-15T06:13:16;14.50;92.60
38936;DHT22;66589;47.458;9.644;2023-05-15T06:15:42;14.50;92.90
38936;DHT22;66589;47.458;9.644;2023-05-15T06:18:10;14.50;93.40
38936;DHT22;66589;47.458;9.644;2023-05-15T06:20:35;14.50;93.40
38936;DHT22;66589;47.458;9.644;2023-05-15T06:23:01;14.40;93.60
38936;DHT22;66589;47.458;9.644;2023-05-15T06:25:27;14.40;94.00
38936;DHT22;66589;47.458;9.644;2023-05-15T06:27:52;14.50;93.90
38936;DHT22;66589;47.458;9.644;2023-05-15T06:30:18;14.50;93.90
38936;DHT22;66589;47.458;9.644;2023-05-15T06:32:44;14.60;94.30
38936;DHT22;66589;47.458;9.644;2023-05-15T06:35:10;14.80;93.70
38936;DHT22;66589;47.458;9.644;2023-05-15T06:37:36;14.90;93.60
38936;DHT22;66589;47.458;9.644;2023-05-15T06:40:03;15.00;93.50
38936;DHT22;66589;47.458;9.644;2023-05-15T06:42:29;15.00;93.60
38936;DHT22;66589;47.458;9.644;2023-05-15T06:44:55;15.00;93.50
38936;DHT22;66589;47.458;9.644;2023-05-15T06:47:21;15.00;93.80
38936;DHT22;66589;47.458;9.644;2023-05-15T06:49:46;15.00;93.60
38936;DHT22;66589;47.458;9.644;2023-05-15T06:52:12;15.00;93.50
38936;DHT22;66589;47.458;9.644;2023-05-15T06:54:38;15.00;93.20
38936;DHT22;66589;47.458;9.644;2023-05-15T06:57:07;15.00;92.60
38936;DHT22;66589;47.458;9.644;2023-05-15T06:59:33;15.00;92.80
38936;DHT22;66589;47.458;9.644;2023-05-15T07:02:01;15.00;93.20
38936;DHT22;66589;47.458;9.644;2023-05-15T07:04:27;15.00;93.70
38936;DHT22;66589;47.458;9.644;2023-05-15T07:06:53;15.00;93.10
38936;DHT22;66589;47.458;9.644;2023-05-15T07:09:18;14.90;93.10
38936;DHT22;66589;47.458;9.644;2023-05-15T07:11:44;14.90;92.30
38936;DHT22;66589;47.458;9.644;2023-05-15T07:14:10;14.80;92.40
38936;DHT22;66589;47.458;9.644;2023-05-15T07:16:35;14.80;92.60
38936;DHT22;66589;47.458;9.644;2023-05-15T07:19:01;14.80;92.80
38936;DHT22;66589;47.458;9.644;2023-05-15T07:21:27;14.90;93.40
38936;DHT22;66589;47.458;9.644;2023-05-15T07:23:52;14.90;92.40
38936;DHT22;66589;47.458;9.644;2023-05-15T07:26:18;15.00;92.00
38936;DHT22;66589;47.458;9.644;2023-05-15T07:28:43;15.00;91.70
38936;DHT22;66589;47.458;9.644;2023-05-15T07:31:09;15.10;91.70
38936;DHT22;66589;47.458;9.644;2023-05-15T07:33:35;15.00;90.80
38936;DHT22;66589;47.458;9.644;2023-05-15T07:36:00;14.90;91.80
38936;DHT22;66589;47.458;9.644;2023-05-15T07:38:26;14.80;92.40
38936;DHT22;66589;47.458;9.644;2023-05-15T07:40:52;14.70;91.80
38936;DHT22;66589;47.458;9.644;2023-05-15T07:43:17;14.70;91.40
38936;DHT22;66589;47.458;9.644;2023-05-15T07:45:43;14.60;91.40
38936;DHT22;66589;47.458;9.644;2023-05-15T07:48:17;14.60;91.10
38936;DHT22;66589;47.458;9.644;2023-05-15T07:50:44;14.60;91.50
38936;DHT22;66589;47.458;9.644;2023-05-15T07:53:14;14.60;91.60
38936;DHT22;66589;47.458;9.644;2023-05-15T07:55:43;14.70;91.80
38936;DHT22;66589;47.458;9.644;2023-05-15T07:58:09;14.90;91.60
38936;DHT22;66589;47.458;9.644;2023-05-15T08:00:35;15.00;90.70
38936;DHT22;66589;47.458;9.644;2023-05-15T08:03:01;14.90;90.50
38936;DHT22;66589;47.458;9.644;2023-05-15T08:05:27;14.90;90.10
38936;DHT22;66589;47.458;9.644;2023-05-15T08:07:54;14.80;90.60
38936;DHT22;66589;47.458;9.644;2023-05-15T08:10:20;14.80;90.80
38936;DHT22;66589;47.458;9.644;2023-05-15T08:12:46;14.90;92.00
38936;DHT22;66589;47.458;9.644;2023-05-15T08:15:13;14.90;91.20
38936;DHT22;66589;47.458;9.644;2023-05-15T08:17:39;14.90;91.10
38936;DHT22;66589;47.458;9.644;2023-05-15T08:20:05;14.90;91.20
38936;DHT22;66589;47.458;9.644;2023-05-15T08:22:31;15.00;90.80
38936;DHT22;66589;47.458;9.644;2023-05-15T08:24:58;14.90;90.00
38936;DHT22;66589;47.458;9.644;2023-05-15T08:27:24;14.80;90.20
38936;DHT22;66589;47.458;9.644;2023-05-15T08:29:50;14.80;90.60
38936;DHT22;66589;47.458;9.644;2023-05-15T08:32:17;14.60;90.90
38936;DHT22;66589;47.458;9.644;2023-05-15T08:34:46;14.50;91.80
38936;DHT22;66589;47.458;9.644;2023-05-15T08:37:12;14.50;91.10
38936;DHT22;66589;47.458;9.644;2023-05-15T08:39:37;14.40;91.10
38936;DHT22;66589;47.458;9.644;2023-05-15T08:42:31;14.40;91.00
38936;DHT22;66589;47.458;9.644;2023-05-15T08:44:59;14.40;90.90
38936;DHT22;66589;47.458;9.644;2023-05-15T08:47:30;14.50;91.50
38936;DHT22;66589;47.458;9.644;2023-05-15T08:50:07;14.40;91.00
38936;DHT22;66589;47.458;9.644;2023-05-15T08:52:35;14.50;91.60
38936;DHT22;66589;47.458;9.644;2023-05-15T08:55:01;14.50;92.10
38936;DHT22;66589;47.458;9.644;2023-05-15T08:57:29;14.50;92.00
38936;DHT22;66589;47.458;9.644;2023-05-15T08:59:58;14.60;93.10
38936;DHT22;66589;47.458;9.644;2023-05-15T09:02:25;14.60;93.20
38936;DHT22;66589;47.458;9.644;2023-05-15T09:04:51;14.90;93.10
38936;DHT22;66589;47.458;9.644;2023-05-15T09:07:18;15.20;91.60
38936;DHT22;66589;47.458;9.644;2023-05-15T09:09:44;15.40;90.80
38936;DHT22;66589;47.458;9.644;2023-05-15T09:12:15;15.60;91.10
38936;DHT22;66589;47.458;9.644;2023-05-15T09:14:41;16.00;91.00
38936;DHT22;66589;47.458;9.644;2023-05-15T09:17:11;16.10;89.90
38936;DHT22;66589;47.458;9.644;2023-05-15T09:19:40;16.10;90.20
38936;DHT22;66589;47.458;9.644;2023-05-15T09:22:19;16.40;89.80
38936;DHT22;66589;47.458;9.644;2023-05-15T09:24:49;16.70;86.60
38936;DHT22;66589;47.458;9.644;2023-05-15T09:27:18;17.00;83.80
38936;DHT22;66589;47.458;9.644;2023-05-15T09:29:44;17.40;84.40
38936;DHT22;66589;47.458;9.644;2023-05-15T09:32:13;17.80;82.00
38936;DHT22;66589;47.458;9.644;2023-05-15T09:34:41;18.30;78.60
38936;DHT22;66589;47.458;9.644;2023-05-15T09:37:27;19.00;78.10
38936;DHT22;66589;47.458;9.644;2023-05-15T09:39:54;20.30;74.40
38936;DHT22;66589;47.458;9.644;2023-05-15T09:42:23;20.90;71.30
38936;DHT22;66589;47.458;9.644;2023-05-15T09:44:49;21.70;71.20
38936;DHT22;66589;47.458;9.644;2023-05-15T09:47:15;22.40;69.40
38936;DHT22;66589;47.458;9.644;2023-05-15T09:49:45;22.60;65.50
38936;DHT22;66589;47.458;9.644;2023-05-15T09:52:11;22.30;62.60
38936;DHT22;66589;47.458;9.644;2023-05-15T09:54:39;22.00;64.90
38936;DHT22;66589;47.458;9.644;2023-05-15T09:57:12;22.10;65.60
38936;DHT22;66589;47.458;9.644;2023-05-15T09:59:43;22.00;65.70
38936;DHT22;66589;47.458;9.644;2023-05-15T10:02:25;22.80;61.30
38936;DHT22;66589;47.458;9.644;2023-05-15T10:04:57;24.20;59.20
38936;DHT22;66589;47.458;9.644;2023-05-15T10:09:59;24.20;57.30
38936;DHT22;66589;47.458;9.644;2023-05-15T10:12:27;24.20;58.00
38936;DHT22;66589;47.458;9.644;2023-05-15T10:14:55;24.10;57.20
38936;DHT22;66589;47.458;9.644;2023-05-15T10:17:22;23.90;57.90
38936;DHT22;66589;47.458;9.644;2023-05-15T10:19:49;24.10;60.70
38936;DHT22;66589;47.458;9.644;2023-05-15T10:22:22;24.00;59.60
38936;DHT22;66589;47.458;9.644;2023-05-15T10:27:42;23.50;61.80
38936;DHT22;66589;47.458;9.644;2023-05-15T10:30:11;23.50;59.20
38936;DHT22;66589;47.458;9.644;2023-05-15T10:32:39;23.40;61.00
38936;DHT22;66589;47.458;9.644;2023-05-15T10:35:08;23.50;61.60
38936;DHT22;66589;47.458;9.644;2023-05-15T10:37:34;23.40;61.10
38936;DHT22;66589;47.458;9.644;2023-05-15T10:40:00;23.40;58.70
38936;DHT22;66589;47.458;9.644;2023-05-15T10:42:28;23.40;60.60
38936;DHT22;66589;47.458;9.644;2023-05-15T10:44:55;23.60;59.10
38936;DHT22;66589;47.458;9.644;2023-05-15T10:47:25;23.70;61.30
38936;DHT22;66589;47.458;9.644;2023-05-15T10:49:51;23.30;60.80
38936;DHT22;66589;47.458;9.644;2023-05-15T10:52:17;22.80;60.20
38936;DHT22;66589;47.458;9.644;2023-05-15T10:58:11;21.80;62.30
38936;DHT22;66589;47.458;9.644;2023-05-15T11:00:42;21.30;60.70
38936;DHT22;66589;47.458;9.644;2023-05-15T11:03:15;20.80;64.20
38936;DHT22;66589;47.458;9.644;2023-05-15T11:06:13;20.30;64.00
38936;DHT22;66589;47.458;9.644;2023-05-15T11:08:40;20.10;67.00
38936;DHT22;66589;47.458;9.644;2023-05-15T11:11:07;19.80;65.80
38936;DHT22;66589;47.458;9.644;2023-05-15T11:25:04;19.10;71.30
38936;DHT22;66589;47.458;9.644;2023-05-15T11:35:25;20.00;68.20
38936;DHT22;66589;47.458;9.644;2023-05-15T11:38:06;19.80;70.30
38936;DHT22;66589;47.458;9.644;2023-05-15T11:40:58;20.10;69.90
38936;DHT22;66589;47.458;9.644;2023-05-15T11:43:31;20.60;69.00
38936;DHT22;66589;47.458;9.644;2023-05-15T11:46:07;21.20;68.70
38936;DHT22;66589;47.458;9.644;2023-05-15T11:51:02;21.40;64.30
38936;DHT22;66589;47.458;9.644;2023-05-15T11:53:29;21.10;64.40
38936;DHT22;66589;47.458;9.644;2023-05-15T11:55:55;20.90;67.30
38936;DHT22;66589;47.458;9.644;2023-05-15T11:58:22;20.60;66.00
38936;DHT22;66589;47.458;9.644;2023-05-15T12:00:49;20.30;68.80
38936;DHT22;66589;47.458;9.644;2023-05-15T12:03:30;20.20;67.20
38936;DHT22;66589;47.458;9.644;2023-05-15T12:05:56;20.40;69.20
38936;DHT22;66589;47.458;9.644;2023-05-15T12:08:22;20.60;67.50
38936;DHT22;66589;47.458;9.644;2023-05-15T12:10:48;20.40;67.10
38936;DHT22;66589;47.458;9.644;2023-05-15T12:13:16;20.40;69.30
38936;DHT22;66589;47.458;9.644;2023-05-15T12:15:44;20.50;68.70
38936;DHT22;66589;47.458;9.644;2023-05-15T12:18:10;20.50;68.50
38936;DHT22;66589;47.458;9.644;2023-05-15T12:20:38;20.60;68.20
38936;DHT22;66589;47.458;9.644;2023-05-15T12:23:06;20.70;68.80
38936;DHT22;66589;47.458;9.644;2023-05-15T12:25:33;20.90;67.50
38936;DHT22;66589;47.458;9.644;2023-05-15T12:28:01;21.00;64.60
38936;DHT22;66589;47.458;9.644;2023-05-15T12:30:29;20.70;60.80
38936;DHT22;66589;47.458;9.644;2023-05-15T12:33:00;20.50;63.60
38936;DHT22;66589;47.458;9.644;2023-05-15T12:35:26;20.20;63.40
38936;DHT22;66589;47.458;9.644;2023-05-15T12:37:52;20.00;63.80
38936;DHT22;66589;47.458;9.644;2023-05-15T12:40:20;19.70;66.00
38936;DHT22;66589;47.458;9.644;2023-05-15T12:42:50;19.50;67.90
38936;DHT22;66589;47.458;9.644;2023-05-15T12:45:19;19.30;69.50
38936;DHT22;66589;47.458;9.644;2023-05-15T12:47:47;19.20;70.40
38936;DHT22;66589;47.458;9.644;2023-05-15T12:50:21;19.30;69.30
38936;DHT22;66589;47.458;9.644;2023-05-15T12:52:53;19.50;71.20
38936;DHT22;66589;47.458;9.644;2023-05-15T12:57:54;20.30;67.70
38936;DHT22;66589;47.458;9.644;2023-05-15T13:00:21;20.50;66.80
38936;DHT22;66589;47.458;9.644;2023-05-15T13:02:55;20.40;64.60
38936;DHT22;66589;47.458;9.644;2023-05-15T13:05:47;20.50;64.60
38936;DHT22;66589;47.458;9.644;2023-05-15T13:08:16;20.50;63.30
38936;DHT22;66589;47.458;9.644;2023-05-15T13:10:43;20.20;64.10
38936;DHT22;66589;47.458;9.644;2023-05-15T13:13:09;20.20;63.50
38936;DHT22;66589;47.458;9.644;2023-05-15T13:18:03;20.60;65.90
38936;DHT22;66589;47.458;9.644;2023-05-15T13:23:02;20.80;65.30
38936;DHT22;66589;47.458;9.644;2023-05-15T13:25:28;20.90;64.80
38936;DHT22;66589;47.458;9.644;2023-05-15T13:27:56;20.70;62.70
38936;DHT22;66589;47.458;9.644;2023-05-15T13:30:23;20.80;62.30
38936;DHT22;66589;47.458;9.644;2023-05-15T13:32:48;20.80;62.80
38936;DHT22;66589;47.458;9.644;2023-05-15T13:35:14;20.70;62.70
38936;DHT22;66589;47.458;9.644;2023-05-15T13:37:40;20.60;63.70
38936;DHT22;66589;47.458;9.644;2023-05-15T13:40:08;20.60;63.30
38936;DHT22;66589;47.458;9.644;2023-05-15T13:42:38;20.30;64.40
38936;DHT22;66589;47.458;9.644;2023-05-15T13:45:05;20.10;64.20
38936;DHT22;66589;47.458;9.644;2023-05-15T13:47:32;20.20;66.90
38936;DHT22;66589;47.458;9.644;2023-05-15T13:49:58;20.50;62.10
38936;DHT22;66589;47.458;9.644;2023-05-15T13:52:27;20.60;65.50
38936;DHT22;66589;47.458;9.644;2023-05-15T13:54:53;20.60;63.50
38936;DHT22;66589;47.458;9.644;2023-05-15T13:57:20;20.50;62.00
38936;DHT22;66589;47.458;9.644;2023-05-15T13:59:45;20.10;62.50
38936;DHT22;66589;47.458;9.644;2023-05-15T14:02:11;20.20;63.80
38936;DHT22;66589;47.458;9.644;2023-05-15T14:04:37;20.20;63.90
38936;DHT22;66589;47.458;9.644;2023-05-15T14:07:02;20.30;62.40
38936;DHT22;66589;47.458;9.644;2023-05-15T14:09:28;20.30;62.10
38936;DHT22;66589;47.458;9.644;2023-05-15T14:11:54;20.40;65.30
38936;DHT22;66589;47.458;9.644;2023-05-15T14:14:20;20.50;63.60
38936;DHT22;66589;47.458;9.644;2023-05-15T14:16:45;20.50;62.40
38936;DHT22;66589;47.458;9.644;2023-05-15T14:19:11;20.50;65.30
38936;DHT22;66589;47.458;9.644;2023-05-15T14:21:38;20.70;63.20
38936;DHT22;66589;47.458;9.644;2023-05-15T14:24:04;20.80;61.20
38936;DHT22;66589;47.458;9.644;2023-05-15T14:26:30;20.90;62.10
38936;DHT22;66589;47.458;9.644;2023-05-15T14:28:56;21.10;63.40
38936;DHT22;66589;47.458;9.644;2023-05-15T14:31:22;21.00;59.50
38936;DHT22;66589;47.458;9.644;2023-05-15T14:33:48;21.00;60.80
38936;DHT22;66589;47.458;9.644;2023-05-15T14:36:14;21.00;59.50
38936;DHT22;66589;47.458;9.644;2023-05-15T14:38:40;20.90;60.50
38936;DHT22;66589;47.458;9.644;2023-05-15T14:41:13;20.80;59.30
38936;DHT22;66589;47.458;9.644;2023-05-15T14:43:39;20.70;60.50
38936;DHT22;66589;47.458;9.644;2023-05-15T14:46:05;20.90;58.50
38936;DHT22;66589;47.458;9.644;2023-05-15T14:48:38;21.10;59.00
38936;DHT22;66589;47.458;9.644;2023-05-15T14:51:10;21.30;58.80
38936;DHT22;66589;47.458;9.644;2023-05-15T14:53:37;21.30;60.00
38936;DHT22;66589;47.458;9.644;2023-05-15T14:56:03;21.40;58.80
38936;DHT22;66589;47.458;9.644;2023-05-15T14:58:29;21.50;58.50
38936;DHT22;66589;47.458;9.644;2023-05-15T15:00:55;21.50;59.30
38936;DHT22;66589;47.458;9.644;2023-05-15T15:03:21;21.30;59.10
38936;DHT22;66589;47.458;9.644;2023-05-15T15:05:49;21.10;59.60
38936;DHT22;66589;47.458;9.644;2023-05-15T15:08:16;20.90;61.90
38936;DHT22;66589;47.458;9.644;2023-05-15T15:10:42;20.90;62.20
38936;DHT22;66589;47.458;9.644;2023-05-15T15:13:08;21.00;62.40
38936;DHT22;66589;47.458;9.644;2023-05-15T15:15:35;20.80;61.10
38936;DHT22;66589;47.458;9.644;2023-05-15T15:18:01;20.70;63.40
38936;DHT22;66589;47.458;9.644;2023-05-15T15:20:27;20.30;63.60
38936;DHT22;66589;47.458;9.644;2023-05-15T15:22:54;20.10;63.20
38936;DHT22;66589;47.458;9.644;2023-05-15T15:25:20;19.80;64.20
38936;DHT22;66589;47.458;9.644;2023-05-15T15:27:47;19.50;64.60
38936;DHT22;66589;47.458;9.644;2023-05-15T15:30:13;19.30;65.60
38936;DHT22;66589;47.458;9.644;2023-05-15T15:32:40;19.20;66.10
38936;DHT22;66589;47.458;9.644;2023-05-15T15:35:10;19.10;68.00
38936;DHT22;66589;47.458;9.644;2023-05-15T15:37:37;18.90;67.00
38936;DHT22;66589;47.458;9.644;2023-05-15T15:40:06;18.90;67.40
38936;DHT22;66589;47.458;9.644;2023-05-15T15:42:32;18.70;67.50
38936;DHT22;66589;47.458;9.644;2023-05-15T15:44:58;18.60;68.60
38936;DHT22;66589;47.458;9.644;2023-05-15T15:47:24;18.50;69.50
38936;DHT22;66589;47.458;9.644;2023-05-15T15:49:51;18.60;67.80
38936;DHT22;66589;47.458;9.644;2023-05-15T15:52:20;18.70;67.30
38936;DHT22;66589;47.458;9.644;2023-05-15T15:54:46;18.70;66.00
38936;DHT22;66589;47.458;9.644;2023-05-15T15:57:13;18.70;65.70
38936;DHT22;66589;47.458;9.644;2023-05-15T15:59:39;18.80;66.70
38936;DHT22;66589;47.458;9.644;2023-05-15T16:02:05;18.70;66.10
38936;DHT22;66589;47.458;9.644;2023-05-15T16:04:32;18.80;65.90
38936;DHT22;66589;47.458;9.644;2023-05-15T16:06:57;19.00;65.70
38936;DHT22;66589;47.458;9.644;2023-05-15T16:09:23;18.90;65.00
38936;DHT22;66589;47.458;9.644;2023-05-15T16:11:49;19.00;64.30
38936;DHT22;66589;47.458;9.644;2023-05-15T16:14:14;19.10;64.60
38936;DHT22;66589;47.458;9.644;2023-05-15T16:16:40;19.20;63.80
38936;DHT22;66589;47.458;9.644;2023-05-15T16:19:06;19.10;63.30
38936;DHT22;66589;47.458;9.644;2023-05-15T16:21:32;19.00;63.10
38936;DHT22;66589;47.458;9.644;2023-05-15T16:24:00;18.90;63.60
38936;DHT22;66589;47.458;9.644;2023-05-15T16:26:26;18.90;64.30
38936;DHT22;66589;47.458;9.644;2023-05-15T16:28:52;18.80;64.40
38936;DHT22;66589;47.458;9.644;2023-05-15T16:31:18;18.60;65.00
38936;DHT22;66589;47.458;9.644;2023-05-15T16:33:45;18.50;64.40
38936;DHT22;66589;47.458;9.644;2023-05-15T16:36:11;18.30;64.60
38936;DHT22;66589;47.458;9.644;2023-05-15T16:38:36;18.20;65.20
38936;DHT22;66589;47.458;9.644;2023-05-15T16:41:02;18.10;64.10
38936;DHT22;66589;47.458;9.644;2023-05-15T16:43:28;18.00;64.80
38936;DHT22;66589;47.458;9.644;2023-05-15T16:45:53;17.90;65.40
38936;DHT22;66589;47.458;9.644;2023-05-15T16:48:19;17.90;65.80
38936;DHT22;66589;47.458;9.644;2023-05-15T16:50:47;17.80;67.20
38936;DHT22;66589;47.458;9.644;2023-05-15T16:53:13;17.60;67.70
38936;DHT22;66589;47.458;9.644;2023-05-15T16:55:39;17.50;67.50
38936;DHT22;66589;47.458;9.644;2023-05-15T16:58:05;17.40;68.40
38936;DHT22;66589;47.458;9.644;2023-05-15T17:00:31;17.40;69.70
38936;DHT22;66589;47.458;9.644;2023-05-15T17:02:57;17.40;68.30
38936;DHT22;66589;47.458;9.644;2023-05-15T17:05:23;17.50;67.60
38936;DHT22;66589;47.458;9.644;2023-05-15T17:07:48;17.60;70.00
38936;DHT22;66589;47.458;9.644;2023-05-15T17:10:14;17.80;68.70
38936;DHT22;66589;47.458;9.644;2023-05-15T17:12:40;17.90;67.30
38936;DHT22;66589;47.458;9.644;2023-05-15T17:15:06;18.10;67.50
38936;DHT22;66589;47.458;9.644;2023-05-15T17:17:32;18.30;67.10
38936;DHT22;66589;47.458;9.644;2023-05-15T17:19:57;18.30;67.10
38936;DHT22;66589;47.458;9.644;2023-05-15T17:22:23;18.60;67.20
38936;DHT22;66589;47.458;9.644;2023-05-15T17:24:49;18.80;66.60
38936;DHT22;66589;47.458;9.644;2023-05-15T17:27:16;19.00;66.00
38936;DHT22;66589;47.458;9.644;2023-05-15T17:29:46;19.10;65.50
38936;DHT22;66589;47.458;9.644;2023-05-15T17:32:12;19.00;64.90
38936;DHT22;66589;47.458;9.644;2023-05-15T17:34:37;19.00;65.30
38936;DHT22;66589;47.458;9.644;2023-05-15T17:37:03;19.00;66.00
38936;DHT22;66589;47.458;9.644;2023-05-15T17:39:29;19.10;65.90
38936;DHT22;66589;47.458;9.644;2023-05-15T17:41:55;19.00;64.50
38936;DHT22;66589;47.458;9.644;2023-05-15T17:44:22;19.00;65.20
38936;DHT22;66589;47.458;9.644;2023-05-15T17:46:52;19.00;64.50
38936;DHT22;66589;47.458;9.644;2023-05-15T17:49:19;19.00;63.70
38936;DHT22;66589;47.458;9.644;2023-05-15T17:51:44;18.90;63.30
38936;DHT22;66589;47.458;9.644;2023-05-15T17:54:10;18.70;64.10
38936;DHT22;66589;47.458;9.644;2023-05-15T17:56:36;18.60;63.30
38936;DHT22;66589;47.458;9.644;2023-05-15T17:59:01;18.40;64.10
38936;DHT22;66589;47.458;9.644;2023-05-15T18:01:28;18.40;64.70
38936;DHT22;66589;47.458;9.644;2023-05-15T18:03:53;18.20;64.80
38936;DHT22;66589;47.458;9.644;2023-05-15T18:06:19;18.10;64.90
38936;DHT22;66589;47.458;9.644;2023-05-15T18:08:45;18.00;65.00
38936;DHT22;66589;47.458;9.644;2023-05-15T18:11:12;17.90;65.20
38936;DHT22;66589;47.458;9.644;2023-05-15T18:13:38;17.90;64.80
38936;DHT22;66589;47.458;9.644;2023-05-15T18:16:04;17.90;66.30
38936;DHT22;66589;47.458;9.644;2023-05-15T18:18:30;17.80;68.00
38936;DHT22;66589;47.458;9.644;2023-05-15T18:20:56;17.70;68.60
38936;DHT22;66589;47.458;9.644;2023-05-15T18:23:21;17.50;69.40
38936;DHT22;66589;47.458;9.644;2023-05-15T18:25:47;17.40;69.90
38936;DHT22;66589;47.458;9.644;2023-05-15T18:28:13;17.30;71.80
38936;DHT22;66589;47.458;9.644;2023-05-15T18:30:40;17.20;73.10
38936;DHT22;66589;47.458;9.644;2023-05-15T18:33:06;17.10;73.60
38936;DHT22;66589;47.458;9.644;2023-05-15T18:35:31;16.90;74.00
38936;DHT22;66589;47.458;9.644;2023-05-15T18:37:57;16.80;74.80
38936;DHT22;66589;47.458;9.644;2023-05-15T18:40:23;16.70;75.60
38936;DHT22;66589;47.458;9.644;2023-05-15T18:42:51;16.60;76.50
38936;DHT22;66589;47.458;9.644;2023-05-15T18:45:20;16.50;76.80
38936;DHT22;66589;47.458;9.644;2023-05-15T18:47:46;16.30;77.10
38936;DHT22;66589;47.458;9.644;2023-05-15T18:50:12;16.20;77.50
38936;DHT22;66589;47.458;9.644;2023-05-15T18:52:39;16.10;78.30
38936;DHT22;66589;47.458;9.644;2023-05-15T18:55:05;16.00;78.40
38936;DHT22;66589;47.458;9.644;2023-05-15T18:57:31;15.80;79.50
38936;DHT22;66589;47.458;9.644;2023-05-15T18:59:57;15.70;80.00
38936;DHT22;66589;47.458;9.644;2023-05-15T19:02:23;15.70;80.20
38936;DHT22;66589;47.458;9.644;2023-05-15T19:04:49;15.60;81.10
38936;DHT22;66589;47.458;9.644;2023-05-15T19:07:14;15.50;81.30
38936;DHT22;66589;47.458;9.644;2023-05-15T19:09:40;15.40;81.70
38936;DHT22;66589;47.458;9.644;2023-05-15T19:12:06;15.30;82.90
38936;DHT22;66589;47.458;9.644;2023-05-15T19:14:32;15.30;83.20
38936;DHT22;66589;47.458;9.644;2023-05-15T19:16:58;15.20;83.60
38936;DHT22;66589;47.458;9.644;2023-05-15T19:19:23;15.00;82.90
38936;DHT22;66589;47.458;9.644;2023-05-15T19:21:49;15.00;83.80
38936;DHT22;66589;47.458;9.644;2023-05-15T19:24:17;14.90;84.00